Paya Lebar Air Base
WSAP : now visible

Airfield :











YOU CAN JOIN US ON...

 
LOGIN :

Register | Disclaimer

   EN    FR    IT 

 









Legend :    VFR   Marginal VFR   IFR   Intensive IFR   Very Intensive IFR
Visi :
Ceiling :
>= 8 km
>= 3000ft
5 to 8 km
1000 to 3000 ft
1500m to 5 km
500 to 1000 ft
800 to 1500m
200 to 500 ft
< 800m
< 200 ft
Symbols :   Thunderstorms  Fog  Heavy snow  Heavy precipitations  Wind > 20 kt







- Airport Elevation : 65 ft
- IATA code : QPG


WSAP - Paya Lebar Air Base

CURRENT METAR :
  • 230545Z 29008KT 3000 -SHRA FEW010 FEW015CB SCT016TCU 27/23 Q1009

EXPIRED METARs :
  • 230500Z 20008KT 9999 VCSH FEW014 FEW016CB SCT018TCU 30/25 Q1009 RESHRA
  • 230425Z 20009KT 9999 VCSH FEW014 FEW016CB SCT018TCU 29/25 Q1009 RESHRA
  • 230400Z 19010KT 9999 SHRA FEW014 FEW016CB SCT018TCU 30/25 Q1010
  • 230300Z 17007KT 9999 SCT018 FEW018TCU SCT300 29/25 Q1010

TAF TAF WSAP
Valid from the 23 at 06:00 until the 24 at 12:00 UTC


230500Z 2306/2412 19007KT 9999 FEW015 SCT020
TEMPO 2306/2309 3000 TSRA FEW012CB BKN015
WSJC FIR / Asia



MET'MAP, your aeronautical weather chart ! - Copyright ORBIFLY December 2007 - Disclaimer

ORBIFLY MET'MAP TEAM :

Programming & Development : Alexandra Zaïnal
Concept & Development : Baudouin d'Aumeries
Co-Development & Prog : Marc-Olivier Méhu
Technical & hardware support : Manuel Goepfert

Contact : metmap@orbifly.com




SOURCES & CREDITS :

   NOAA       Earth
Advisory